Time;durP1;ratioP1;P1;durP2;ratioP2;P2;SDS_P1;SDS_P2;PMS_P1;PMS_P2;Temp;Humidity;BMP_temperature;BMP_pressure;BME280_temperature;BME280_humidity;BME280_pressure;Samples;Min_cycle;Max_cycle;Signal;HPM_P1;HPM_P2
2021/01/29 00:00:54;;;;;;;5.15;3.10;;;;;;;-1.76;88.36;99597.09;4934598;28;20146;-56
2021/01/29 00:03:21;;;;;;;4.55;2.72;;;;;;;-2.22;89.76;99601.09;4931794;28;20063;-58
2021/01/29 00:05:54;;;;;;;4.03;2.78;;;;;;;-2.05;90.00;99601.31;4933940;28;20843;-56
2021/01/29 00:08:22;;;;;;;4.07;2.70;;;;;;;-1.89;89.37;99612.25;4932105;28;20060;-58
2021/01/29 00:10:50;;;;;;;6.82;3.17;;;;;;;-1.98;89.84;99601.69;4933776;28;20051;-53
2021/01/29 00:13:18;;;;;;;5.80;2.90;;;;;;;-2.49;91.50;99585.34;4933544;28;20142;-58
2021/01/29 00:15:44;;;;;;;4.93;3.20;;;;;;;-2.45;92.50;99583.09;4935651;28;20039;-58
2021/01/29 00:18:12;;;;;;;6.78;3.58;;;;;;;-2.49;93.35;99570.31;4933200;28;20488;-58
2021/01/29 00:20:39;;;;;;;4.13;3.17;;;;;;;-2.50;92.59;99574.41;4932194;28;20151;-55
2021/01/29 00:23:06;;;;;;;6.75;3.47;;;;;;;-2.48;93.30;99592.06;4934331;28;20051;-58
2021/01/29 00:25:38;;;;;;;6.60;3.45;;;;;;;-2.57;93.61;99602.41;4931612;28;20077;-57
2021/01/29 00:28:07;;;;;;;5.32;3.50;;;;;;;-2.64;94.14;99603.66;4933020;28;20059;-58
2021/01/29 00:30:35;;;;;;;6.97;3.42;;;;;;;-2.54;94.22;99611.72;4931367;28;20155;-58
2021/01/29 00:33:03;;;;;;;6.38;4.25;;;;;;;-2.64;94.61;99621.19;4934091;28;20833;-57
2021/01/29 00:35:32;;;;;;;4.57;3.10;;;;;;;-2.44;93.61;99616.53;4932102;28;20098;-52
2021/01/29 00:37:59;;;;;;;6.03;3.30;;;;;;;-1.94;92.05;99627.03;4934298;28;20055;-55
2021/01/29 00:40:27;;;;;;;7.25;3.33;;;;;;;-2.40;92.02;99611.81;4931779;28;20794;-57
2021/01/29 00:42:55;;;;;;;7.57;3.55;;;;;;;-2.66;94.03;99616.88;4933835;28;20051;-58
2021/01/29 00:45:24;;;;;;;5.82;3.63;;;;;;;-2.50;93.78;99612.00;4931835;28;20060;-57
2021/01/29 00:47:50;;;;;;;4.20;3.42;;;;;;;-2.11;93.18;99603.47;4932828;28;20091;-54
2021/01/29 00:50:18;;;;;;;5.75;3.42;;;;;;;-2.07;91.52;99599.50;4932439;28;20054;-60
2021/01/29 00:52:44;;;;;;;6.22;3.10;;;;;;;-1.78;90.44;99601.16;4932707;28;20098;-54
2021/01/29 00:55:12;;;;;;;4.97;3.05;;;;;;;-2.15;90.94;99588.16;4933472;28;20122;-54
2021/01/29 00:57:38;;;;;;;6.43;3.38;;;;;;;-2.27;92.20;99580.78;4931486;28;20873;-56
2021/01/29 01:00:08;;;;;;;5.85;3.08;;;;;;;-1.96;91.57;99575.03;4933166;28;20051;-57
2021/01/29 01:02:35;;;;;;;9.15;3.90;;;;;;;-2.12;92.09;99578.31;4932055;28;20142;-55
2021/01/29 01:05:03;;;;;;;6.32;3.30;;;;;;;-2.24;92.96;99583.47;4938508;28;20130;-58
2021/01/29 01:07:29;;;;;;;4.85;3.55;;;;;;;-2.41;93.12;99586.63;4936342;28;20055;-56
2021/01/29 01:09:56;;;;;;;5.68;2.88;;;;;;;-2.18;93.40;99591.34;4938626;28;20104;-54
2021/01/29 01:12:24;;;;;;;9.10;2.95;;;;;;;-2.26;92.91;99581.69;4940265;28;20126;-54
2021/01/29 01:14:51;;;;;;;4.90;3.10;;;;;;;-2.01;93.07;99579.78;4937571;28;20051;-58
2021/01/29 01:17:18;;;;;;;6.13;3.08;;;;;;;-1.93;92.13;99580.25;4936201;28;20051;-55
2021/01/29 01:19:45;;;;;;;4.78;3.30;;;;;;;-1.51;90.08;99574.25;4936610;28;20130;-53
2021/01/29 01:22:12;;;;;;;4.03;2.47;;;;;;;-1.82;90.93;99594.25;4936990;28;20043;-55
2021/01/29 01:24:41;;;;;;;4.28;3.10;;;;;;;-1.88;90.84;99592.25;4935475;28;20122;-54
2021/01/29 01:27:16;;;;;;;7.45;3.00;;;;;;;-1.90;90.85;99590.44;4937408;28;20051;-55
2021/01/29 01:29:44;;;;;;;5.57;2.75;;;;;;;-1.91;92.28;99587.06;4936629;28;20066;-58
2021/01/29 01:32:10;;;;;;;3.45;2.50;;;;;;;-2.02;91.80;99580.56;4937232;28;20145;-57
2021/01/29 01:34:37;;;;;;;5.38;2.92;;;;;;;-1.77;91.54;99584.47;4935316;28;20146;-56
2021/01/29 01:37:03;;;;;;;3.25;2.10;;;;;;;-1.58;90.23;99577.19;4937957;28;20079;-56
2021/01/29 01:39:30;;;;;;;6.70;2.63;;;;;;;-1.44;88.60;99578.81;4936141;28;20119;-54
2021/01/29 01:41:58;;;;;;;4.68;2.67;;;;;;;-1.53;88.99;99583.31;4937966;28;20142;-57
2021/01/29 01:44:31;;;;;;;6.88;3.75;;;;;;;-1.57;89.66;99588.97;4935242;28;20051;-56
2021/01/29 01:47:06;;;;;;;3.55;2.10;;;;;;;-1.70;89.17;99587.41;4937374;28;20051;-50
2021/01/29 01:49:36;;;;;;;4.60;2.08;;;;;;;-1.45;89.10;99587.13;4935460;28;20054;-57
2021/01/29 01:52:12;;;;;;;3.33;2.40;;;;;;;-1.81;90.03;99588.44;4937652;28;20054;-55
2021/01/29 01:54:43;;;;;;;3.17;2.10;;;;;;;-1.47;89.12;99580.31;4935674;28;20048;-56
2021/01/29 01:57:13;;;;;;;4.82;2.28;;;;;;;-1.70;90.39;99577.38;4936415;28;20110;-57
2021/01/29 01:59:53;;;;;;;9.45;2.65;;;;;;;-1.41;90.05;99568.09;4935770;28;20393;-58
2021/01/29 02:02:25;;;;;;;3.28;2.05;;;;;;;-1.48;88.63;99571.88;4935329;28;20424;-55
2021/01/29 02:04:52;;;;;;;5.53;2.17;;;;;;;-1.91;90.42;99564.47;4937362;28;20052;-56
2021/01/29 02:07:22;;;;;;;2.90;1.70;;;;;;;-1.48;89.66;99564.34;4934930;28;20051;-51
2021/01/29 02:09:50;;;;;;;4.32;2.03;;;;;;;-1.68;90.04;99557.38;4936640;28;20052;-57
2021/01/29 02:12:20;;;;;;;5.25;2.13;;;;;;;-1.72;90.81;99563.00;4935213;28;20047;-58
2021/01/29 02:14:47;;;;;;;5.35;2.25;;;;;;;-1.88;90.70;99563.81;4934653;28;20047;-57
2021/01/29 02:17:45;;;;;;;3.40;2.25;;;;;;;-1.97;92.25;99558.25;4935723;28;20094;-52
2021/01/29 02:20:50;;;;;;;4.38;2.20;;;;;;;-2.16;92.08;99551.34;4935881;28;20066;-54
2021/01/29 02:23:31;;;;;;;6.50;2.45;;;;;;;-2.28;93.15;99548.97;4935376;28;20035;-55
2021/01/29 02:26:28;;;;;;;5.65;2.70;;;;;;;-2.31;93.45;99554.69;4937346;28;20384;-56
2021/01/29 02:29:23;;;;;;;2.30;2.03;;;;;;;-2.23;93.50;99546.72;4936920;28;20687;-57
2021/01/29 02:32:16;;;;;;;5.22;3.25;;;;;;;-2.36;93.52;99551.06;4936219;28;20055;-56
2021/01/29 02:34:55;;;;;;;6.15;2.53;;;;;;;-1.90;93.04;99547.78;4935115;28;20091;-56
2021/01/29 02:38:12;;;;;;;5.05;2.03;;;;;;;-1.97;91.97;99550.75;4934448;28;20066;-56
2021/01/29 02:40:45;;;;;;;5.00;2.50;;;;;;;-1.88;91.50;99549.59;4925300;28;20122;-54
2021/01/29 02:43:24;;;;;;;4.63;2.00;;;;;;;-1.51;90.26;99543.25;4936143;28;20047;-54
2021/01/29 02:46:08;;;;;;;3.90;2.15;;;;;;;-1.70;90.21;99542.25;4935998;28;20102;-52
2021/01/29 02:48:40;;;;;;;4.60;2.10;;;;;;;-1.29;88.82;99538.63;4934338;28;20048;-55
2021/01/29 02:51:13;;;;;;;6.07;2.25;;;;;;;-1.45;88.38;99531.91;4935222;28;20472;-55
2021/01/29 02:53:41;;;;;;;6.72;2.55;;;;;;;-1.37;88.17;99524.78;4934400;28;20087;-55
2021/01/29 02:56:13;;;;;;;3.08;1.88;;;;;;;-1.33;88.11;99537.59;4935076;28;20055;-53
2021/01/29 02:58:48;;;;;;;5.50;2.38;;;;;;;-1.68;89.92;99532.28;4934239;28;20083;-58
2021/01/29 03:01:19;;;;;;;5.63;2.15;;;;;;;-2.14;91.59;99529.72;4934486;28;20046;-55
2021/01/29 03:03:55;;;;;;;3.15;2.03;;;;;;;-2.34;92.37;99526.94;4935488;28;20062;-57
2021/01/29 03:06:31;;;;;;;4.20;2.45;;;;;;;-2.14;92.25;99528.06;4933776;28;20875;-55
2021/01/29 03:09:10;;;;;;;5.47;2.13;;;;;;;-1.40;89.01;99527.13;4936911;28;20122;-54
2021/01/29 03:11:49;;;;;;;6.68;2.13;;;;;;;-1.98;91.24;99527.31;4933789;28;20520;-54
2021/01/29 03:14:24;;;;;;;5.00;2.10;;;;;;;-2.06;91.68;99523.50;4935038;28;20055;-53
2021/01/29 03:16:55;;;;;;;5.72;2.20;;;;;;;-2.15;91.63;99521.31;4935522;28;20393;-56
2021/01/29 03:19:29;;;;;;;5.53;2.67;;;;;;;-2.33;93.35;99521.13;4933547;28;20067;-55
2021/01/29 03:22:01;;;;;;;4.63;2.53;;;;;;;-2.24;93.26;99510.78;4936323;28;20056;-55
2021/01/29 03:24:45;;;;;;;3.53;2.03;;;;;;;-2.01;92.73;99514.59;4937632;28;20051;-55
2021/01/29 03:27:20;;;;;;;3.03;2.30;;;;;;;-1.75;91.77;99513.53;4934215;28;20054;-57
2021/01/29 03:29:54;;;;;;;4.15;2.05;;;;;;;-1.92;91.94;99510.09;4934971;28;20834;-57
2021/01/29 03:32:23;;;;;;;6.70;2.33;;;;;;;-1.66;91.01;99508.16;4933867;28;20059;-57
2021/01/29 03:35:31;;;;;;;4.75;2.03;;;;;;;-1.77;90.72;99499.16;4934943;28;20062;-56
2021/01/29 03:38:08;;;;;;;4.10;2.40;;;;;;;-1.95;91.42;99492.34;4916479;28;20047;-56
2021/01/29 03:40:41;;;;;;;4.30;1.80;;;;;;;-1.39;89.41;99492.06;4932909;28;20123;-56
2021/01/29 03:43:28;;;;;;;5.53;2.20;;;;;;;-1.48;88.92;99484.03;4934528;28;20050;-52
2021/01/29 03:46:40;;;;;;;2.45;1.90;;;;;;;-1.84;90.27;99485.44;4935530;28;20126;-55
2021/01/29 03:49:39;;;;;;;3.97;2.13;;;;;;;-2.20;92.53;99480.09;4921625;28;20785;-57
2021/01/29 03:52:15;;;;;;;2.97;2.22;;;;;;;-2.27;93.89;99479.63;4934227;28;20079;-54
2021/01/29 03:55:05;;;;;;;2.85;1.95;;;;;;;-2.19;92.86;99478.44;4933468;28;20170;-56
2021/01/29 03:57:55;;;;;;;4.07;2.35;;;;;;;-2.39;93.93;99465.66;4932930;28;20065;-53
2021/01/29 04:00:59;;;;;;;6.10;2.60;;;;;;;-2.62;94.67;99461.81;4927674;28;20052;-57
2021/01/29 04:03:42;;;;;;;4.57;2.67;;;;;;;-2.76;95.59;99445.13;4925487;28;20054;-54
2021/01/29 04:06:14;;;;;;;3.08;2.25;;;;;;;-2.42;94.77;99445.41;4933672;28;20189;-51
2021/01/29 04:09:16;;;;;;;6.65;2.75;;;;;;;-2.77;94.71;99443.41;4933280;28;20106;-57
2021/01/29 04:11:51;;;;;;;4.70;2.90;;;;;;;-2.85;95.71;99452.97;4933143;28;20063;-51
2021/01/29 04:14:47;;;;;;;3.13;2.22;;;;;;;-2.87;95.74;99447.00;4933274;28;20052;-56
2021/01/29 04:17:22;;;;;;;5.88;2.83;;;;;;;-3.02;96.88;99437.72;4933292;28;20051;-55
2021/01/29 04:19:54;;;;;;;5.43;3.00;;;;;;;-2.97;97.13;99441.38;4934243;28;20158;-53
2021/01/29 04:22:26;;;;;;;6.22;2.83;;;;;;;-3.08;97.39;99443.25;4932407;28;20055;-51
2021/01/29 04:25:24;;;;;;;3.28;2.78;;;;;;;-2.79;97.15;99434.94;4934664;28;20075;-56
2021/01/29 04:27:58;;;;;;;5.07;2.70;;;;;;;-3.13;97.55;99432.97;4933667;28;20039;-55
2021/01/29 04:30:29;;;;;;;4.78;2.53;;;;;;;-3.10;97.26;99437.28;4936789;28;21016;-56
2021/01/29 04:33:08;;;;;;;6.95;3.50;;;;;;;-3.15;97.83;99424.47;4935094;28;20138;-56
2021/01/29 04:35:37;;;;;;;4.70;3.08;;;;;;;-3.14;98.25;99417.88;4932512;28;20163;-53
2021/01/29 04:38:14;;;;;;;9.57;3.45;;;;;;;-3.19;98.94;99416.69;4932654;28;20110;-57
2021/01/29 04:40:46;;;;;;;3.88;2.50;;;;;;;-3.27;99.28;99416.28;4933103;28;20496;-53
2021/01/29 04:43:29;;;;;;;6.78;2.90;;;;;;;-3.08;99.20;99413.22;4933497;28;20043;-54
2021/01/29 04:46:14;;;;;;;6.68;3.50;;;;;;;-3.24;99.48;99400.56;4935000;28;20553;-48
2021/01/29 04:49:10;;;;;;;5.22;3.20;;;;;;;-3.22;99.95;99391.50;4932808;28;20126;-52
2021/01/29 04:52:14;;;;;;;6.25;3.28;;;;;;;-3.28;100.00;99393.63;4927984;28;20050;-51
2021/01/29 04:55:18;;;;;;;6.90;3.65;;;;;;;-3.14;100.00;99365.31;4892576;29;20085;-54
2021/01/29 04:58:23;;;;;;;5.85;3.70;;;;;;;-3.24;100.00;99358.88;4893286;29;20394;-50
2021/01/29 05:01:35;;;;;;;5.55;3.20;;;;;;;-3.23;100.00;99355.63;4923062;28;20567;-53
2021/01/29 05:04:27;;;;;;;6.07;3.20;;;;;;;-2.97;100.00;99361.25;4935064;28;20492;-54
2021/01/29 05:07:03;;;;;;;6.97;3.75;;;;;;;-2.73;99.41;99350.09;4934356;28;20047;-56
2021/01/29 05:10:03;;;;;;;5.32;3.38;;;;;;;-2.69;99.41;99346.13;4936825;28;20075;-54
2021/01/29 05:12:41;;;;;;;4.38;3.25;;;;;;;-2.58;98.35;99340.09;4936655;28;20051;-53
2021/01/29 05:15:38;;;;;;;5.53;2.80;;;;;;;-2.60;98.58;99339.13;4933209;28;20087;-58
2021/01/29 05:18:25;;;;;;;8.20;2.85;;;;;;;-2.23;97.31;99321.97;4933200;28;20078;-56
2021/01/29 05:21:10;;;;;;;6.63;2.95;;;;;;;-2.05;95.17;99317.06;4934147;28;20052;-56
2021/01/29 05:24:21;;;;;;;5.57;3.25;;;;;;;-2.29;95.01;99313.25;4932537;28;20423;-57
2021/01/29 05:26:51;;;;;;;4.50;3.20;;;;;;;-2.49;96.28;99310.53;4933171;28;20546;-54
2021/01/29 05:29:42;;;;;;;9.32;3.83;;;;;;;-2.61;96.48;99313.22;4932951;28;20056;-53
2021/01/29 05:32:30;;;;;;;5.43;3.70;;;;;;;-2.61;96.69;99307.34;4933161;28;20043;-58
2021/01/29 05:35:29;;;;;;;6.00;3.97;;;;;;;-2.70;96.32;99306.84;4934624;28;20055;-57
2021/01/29 05:38:07;;;;;;;8.07;3.97;;;;;;;-2.60;96.32;99304.91;4923789;28;21555;-58
2021/01/29 05:40:48;;;;;;;5.57;3.85;;;;;;;-2.63;97.00;99291.38;4932216;28;20086;-51
2021/01/29 05:43:29;;;;;;;9.50;4.57;;;;;;;-3.12;97.88;99299.50;4932910;28;20055;-55
2021/01/29 05:46:30;;;;;;;9.05;5.03;;;;;;;-2.88;97.63;99295.00;4934455;28;20106;-57
2021/01/29 05:49:21;;;;;;;8.20;4.28;;;;;;;-2.68;97.90;99285.22;4934890;28;20055;-54
2021/01/29 05:52:29;;;;;;;7.63;4.63;;;;;;;-2.98;97.95;99277.75;4936615;28;20559;-53
2021/01/29 05:55:13;;;;;;;7.28;4.20;;;;;;;-3.01;98.38;99271.72;4932910;28;20054;-55
2021/01/29 05:58:00;;;;;;;13.65;4.35;;;;;;;-3.08;97.98;99283.03;4933144;28;20075;-55
2021/01/29 06:00:55;;;;;;;7.38;4.35;;;;;;;-2.85;98.57;99277.66;4937790;28;20048;-58
2021/01/29 06:03:53;;;;;;;8.10;4.75;;;;;;;-2.74;97.50;99278.25;4938439;28;20044;-53
2021/01/29 06:06:42;;;;;;;9.30;4.40;;;;;;;-2.42;96.17;99275.00;4935481;28;20126;-54
2021/01/29 06:09:51;;;;;;;8.77;5.40;;;;;;;-2.54;96.30;99289.38;4935325;28;20090;-55
2021/01/29 06:12:38;;;;;;;12.57;5.60;;;;;;;-2.68;97.04;99285.22;4933019;28;20456;-58
2021/01/29 06:15:53;;;;;;;9.80;5.53;;;;;;;-3.08;97.35;99275.53;4935974;28;20114;-57
2021/01/29 06:18:41;;;;;;;9.80;5.80;;;;;;;-3.29;98.85;99265.13;4931131;28;20741;-57
2021/01/29 06:21:29;;;;;;;8.52;5.32;;;;;;;-3.40;99.99;99261.16;4935028;28;20047;-56
2021/01/29 06:24:27;;;;;;;11.02;5.38;;;;;;;-3.52;100.00;99252.94;4937034;28;20040;-56
2021/01/29 06:27:30;;;;;;;10.90;5.63;;;;;;;-3.44;100.00;99247.63;4935795;28;20054;-57
2021/01/29 06:30:13;;;;;;;13.20;5.32;;;;;;;-2.94;100.00;99243.75;4936905;28;20061;-56
2021/01/29 06:33:04;;;;;;;8.38;4.85;;;;;;;-3.37;99.84;99233.84;4934128;28;20484;-54
2021/01/29 06:36:02;;;;;;;8.52;5.10;;;;;;;-3.13;99.69;99222.69;4934426;28;20130;-55
2021/01/29 06:38:47;;;;;;;12.82;6.45;;;;;;;-3.48;100.00;99225.69;4937163;28;20075;-55
2021/01/29 06:41:38;;;;;;;9.60;5.38;;;;;;;-3.16;100.00;99230.03;4936190;28;20055;-51
2021/01/29 06:44:12;;;;;;;7.97;5.22;;;;;;;-3.09;99.72;99234.59;4932295;28;20455;-51
2021/01/29 06:47:04;;;;;;;7.68;5.18;;;;;;;-2.98;99.00;99236.84;4933226;28;20047;-56
2021/01/29 06:49:39;;;;;;;9.13;5.03;;;;;;;-3.09;98.19;99229.59;4938144;28;20040;-50
2021/01/29 06:52:15;;;;;;;;;;;;;;;-2.87;99.06;99239.13;4935478;28;20804;-57
2021/01/29 06:54:56;;;;;;;13.45;5.15;;;;;;;-2.82;99.25;99244.41;4936794;28;19974;-56
2021/01/29 06:57:41;;;;;;;11.35;5.35;;;;;;;-2.74;98.94;99248.19;4934651;28;20044;-53
2021/01/29 07:00:19;;;;;;;8.68;5.00;;;;;;;-2.74;98.60;99224.78;4933968;28;20097;-56
2021/01/29 07:03:19;;;;;;;10.52;4.88;;;;;;;-2.94;97.82;99237.09;4934741;28;20055;-54
2021/01/29 07:05:56;;;;;;;9.85;4.80;;;;;;;-2.75;98.59;99240.59;4937761;28;20418;-53
2021/01/29 07:08:52;;;;;;;7.90;5.25;;;;;;;-3.01;99.01;99222.50;4948729;28;20426;-52
2021/01/29 07:11:54;;;;;;;13.83;5.57;;;;;;;-2.79;99.20;99216.16;4954942;28;20121;-57
2021/01/29 07:14:54;;;;;;;10.98;5.40;;;;;;;-2.82;97.84;99210.22;4939662;28;20720;-55
2021/01/29 07:17:33;;;;;;;13.15;6.38;;;;;;;-2.82;98.42;99191.81;4938038;28;20047;-57
2021/01/29 07:20:06;;;;;;;12.15;6.68;;;;;;;-2.93;98.92;99205.41;4954999;28;20067;-52
2021/01/29 07:23:03;;;;;;;9.70;5.93;;;;;;;-2.62;98.18;99196.25;4936068;28;20044;-53
2021/01/29 07:25:34;;;;;;;12.95;6.63;;;;;;;-2.86;98.67;99193.31;4944254;28;20047;-51
2021/01/29 07:28:20;;;;;;;14.30;6.63;;;;;;;-2.28;97.24;99202.19;4934921;28;20114;-52
2021/01/29 07:31:10;;;;;;;9.30;5.47;;;;;;;-2.41;96.18;99193.16;4941862;28;20362;-57
2021/01/29 07:33:46;;;;;;;16.15;8.40;;;;;;;-2.45;97.75;99186.25;4932481;28;20640;-54
2021/01/29 07:36:59;;;;;;;12.45;8.13;;;;;;;-2.63;97.16;99191.19;4936204;28;20039;-54
2021/01/29 07:39:46;;;;;;;10.00;6.32;;;;;;;-2.63;97.89;99178.66;4940134;28;20059;-58
2021/01/29 07:42:15;;;;;;;10.50;5.97;;;;;;;-2.56;98.34;99165.66;4935552;28;20050;-53
2021/01/29 07:45:12;;;;;;;10.95;6.45;;;;;;;-2.61;97.24;99172.91;4935627;28;20083;-51
2021/01/29 07:48:01;;;;;;;11.80;5.60;;;;;;;-2.25;95.58;99157.22;4935259;28;20055;-51
2021/01/29 07:50:35;;;;;;;10.35;4.68;;;;;;;-2.10;95.12;99151.34;4950474;28;20389;-57
2021/01/29 07:53:18;;;;;;;7.15;5.10;;;;;;;-2.35;96.16;99148.38;4935271;28;20067;-55
2021/01/29 07:56:09;;;;;;;13.45;5.63;;;;;;;-1.92;94.65;99150.53;4933168;28;20047;-56
2021/01/29 07:58:48;;;;;;;9.13;4.70;;;;;;;-1.69;93.53;99161.72;4934643;28;20062;-52
2021/01/29 08:01:50;;;;;;;12.60;6.35;;;;;;;-2.34;96.11;99148.44;4933863;28;20058;-56
2021/01/29 08:05:01;;;;;;;8.40;4.97;;;;;;;-2.26;96.04;99148.84;4933269;28;20781;-57
2021/01/29 08:07:46;;;;;;;5.82;4.28;;;;;;;-1.29;92.42;99149.47;4926061;28;20066;-59
2021/01/29 08:10:42;;;;;;;8.02;4.00;;;;;;;-1.34;90.10;99145.84;4935142;28;20062;-52
2021/01/29 08:13:31;;;;;;;8.07;5.07;;;;;;;-1.03;89.45;99145.63;4936817;28;20666;-53
2021/01/29 08:16:39;;;;;;;6.30;4.45;;;;;;;-1.30;87.93;99145.19;4936065;28;20047;-55
2021/01/29 08:19:41;;;;;;;5.68;3.97;;;;;;;-1.38;91.18;99134.81;4933001;28;20089;-51
2021/01/29 08:22:19;;;;;;;6.60;5.07;;;;;;;-1.07;90.50;99126.19;4924212;28;20039;-54
2021/01/29 08:24:55;;;;;;;7.00;4.47;;;;;;;-1.00;89.61;99130.72;4941542;28;20070;-52
2021/01/29 08:28:04;;;;;;;7.20;4.18;;;;;;;-1.14;88.20;99122.53;4933467;28;20054;-53
2021/01/29 08:30:49;;;;;;;7.82;4.40;;;;;;;-1.34;90.09;99121.63;4933846;28;20608;-53
2021/01/29 08:33:40;;;;;;;7.43;4.85;;;;;;;-1.69;91.01;99122.44;4932817;28;20082;-51
2021/01/29 08:36:33;;;;;;;8.88;4.57;;;;;;;-1.90;93.08;99114.72;4934171;28;20058;-52
2021/01/29 08:39:20;;;;;;;8.55;4.78;;;;;;;-1.91;93.41;99109.63;4940233;28;20053;-53
2021/01/29 08:41:56;;;;;;;9.02;5.22;;;;;;;-1.66;92.70;99101.66;4939844;28;20051;-53
2021/01/29 08:44:50;;;;;;;9.13;4.75;;;;;;;-1.26;90.50;99098.50;4932030;28;20055;-52
2021/01/29 08:47:43;;;;;;;14.52;5.55;;;;;;;-1.43;90.47;99091.06;4934141;28;20047;-57
2021/01/29 08:50:28;;;;;;;7.93;5.50;;;;;;;-1.44;91.63;99084.31;4936137;28;20046;-57
2021/01/29 08:53:35;;;;;;;9.35;5.43;;;;;;;-1.57;91.08;99087.91;4937467;28;20055;-59
2021/01/29 08:56:17;;;;;;;8.23;5.40;;;;;;;-0.84;88.11;99080.38;4931409;28;20122;-57
2021/01/29 08:59:04;;;;;;;11.68;5.18;;;;;;;-1.30;90.89;99077.41;4933786;28;20043;-58
2021/01/29 09:01:46;;;;;;;10.60;5.45;;;;;;;-1.21;90.13;99075.31;4944254;28;20079;-56
2021/01/29 09:04:41;;;;;;;12.93;5.50;;;;;;;-1.22;89.63;99070.25;4941952;28;20046;-58
2021/01/29 09:07:20;;;;;;;10.27;6.28;;;;;;;-1.24;89.85;99061.78;4933435;28;20703;-52
2021/01/29 09:09:50;;;;;;;12.88;6.05;;;;;;;-1.49;90.91;99064.81;4940340;28;20057;-55
2021/01/29 09:12:27;;;;;;;13.32;6.90;;;;;;;-1.27;90.98;99065.00;4939344;28;20051;-58
2021/01/29 09:14:59;;;;;;;13.40;7.22;;;;;;;-1.05;89.48;99050.13;4936118;28;20095;-48
2021/01/29 09:17:34;;;;;;;12.88;6.65;;;;;;;-1.30;88.72;99050.66;4935429;28;20552;-53
2021/01/29 09:20:05;;;;;;;8.23;5.90;;;;;;;-1.09;89.42;99049.94;4934551;28;20044;-46
2021/01/29 09:22:35;;;;;;;10.30;6.47;;;;;;;-1.36;90.16;99047.03;4931245;28;20658;-48
2021/01/29 09:25:10;;;;;;;12.27;6.43;;;;;;;-1.59;90.23;99054.34;4936900;28;20050;-54
2021/01/29 09:28:07;;;;;;;9.38;6.30;;;;;;;-1.22;90.02;99048.50;4937669;28;20084;-57
2021/01/29 09:31:09;;;;;;;11.48;5.43;;;;;;;-0.74;88.30;99041.41;4941198;28;20051;-50
2021/01/29 09:33:54;;;;;;;8.43;5.53;;;;;;;-1.07;89.66;99044.16;4941346;28;20082;-54
2021/01/29 09:36:25;;;;;;;10.48;6.18;;;;;;;-1.12;88.98;99047.28;4938884;28;20203;-51
2021/01/29 09:39:01;;;;;;;13.30;5.47;;;;;;;-0.77;87.72;99044.69;4937181;28;20053;-55
2021/01/29 09:41:36;;;;;;;9.32;5.78;;;;;;;-0.92;88.62;99040.66;4937902;28;20051;-56
2021/01/29 09:44:15;;;;;;;9.02;5.03;;;;;;;-0.70;86.51;99039.91;4940309;28;20043;-56
2021/01/29 09:46:45;;;;;;;13.52;5.78;;;;;;;-1.06;88.07;99040.03;4939919;28;20047;-57
2021/01/29 09:49:25;;;;;;;10.73;5.80;;;;;;;-1.04;88.69;99033.41;4935957;28;20059;-56
2021/01/29 09:52:29;;;;;;;8.88;5.30;;;;;;;-1.23;88.49;99024.19;4934766;28;20720;-49
2021/01/29 09:55:16;;;;;;;10.02;5.35;;;;;;;-0.99;87.22;99016.03;4936662;28;20051;-45
2021/01/29 09:57:58;;;;;;;8.13;5.28;;;;;;;-1.06;87.84;99015.78;4938045;28;20440;-52
2021/01/29 10:00:31;;;;;;;11.57;5.35;;;;;;;-0.16;84.88;99008.69;4939522;28;20635;-52
2021/01/29 10:03:06;;;;;;;8.25;4.07;;;;;;;-0.37;84.47;99006.19;4940827;28;20058;-49
2021/01/29 10:05:51;;;;;;;5.93;4.38;;;;;;;-0.04;81.25;98996.63;4935711;28;20139;-47
2021/01/29 10:08:29;;;;;;;7.65;3.85;;;;;;;-0.36;81.91;99000.34;4947738;28;20427;-46
2021/01/29 10:11:16;;;;;;;9.00;3.90;;;;;;;0.51;79.57;98987.84;4943361;28;20059;-51
2021/01/29 10:13:57;;;;;;;7.13;4.05;;;;;;;-0.11;81.21;98987.09;4941233;28;20055;-49
2021/01/29 10:16:25;;;;;;;9.82;4.55;;;;;;;-0.36;83.53;98982.75;4954602;28;20102;-43
2021/01/29 10:19:13;;;;;;;8.65;3.80;;;;;;;-0.19;82.77;98990.09;4956389;28;20059;-55
2021/01/29 10:21:58;;;;;;;6.53;3.78;;;;;;;0.12;81.55;98987.16;4946911;28;20125;-57
2021/01/29 10:24:46;;;;;;;5.78;3.00;;;;;;;0.41;80.13;98988.28;4941268;28;20048;-55
2021/01/29 10:27:21;;;;;;;7.25;3.38;;;;;;;-0.23;81.28;98981.59;4939848;28;20051;-53
2021/01/29 10:29:59;;;;;;;4.53;3.42;;;;;;;0.69;79.29;98980.09;4939635;28;20051;-52
2021/01/29 10:32:33;;;;;;;3.55;2.70;;;;;;;0.55;78.74;98974.56;4942834;28;20149;-46
2021/01/29 10:35:21;;;;;;;4.43;2.85;;;;;;;0.01;80.42;98976.69;4944048;28;20047;-54
2021/01/29 10:38:15;;;;;;;4.13;2.97;;;;;;;0.09;79.92;98964.38;4936989;28;20118;-53
2021/01/29 10:40:45;;;;;;;5.03;3.47;;;;;;;-0.24;81.04;98972.31;4935562;28;20106;-50
2021/01/29 10:43:20;;;;;;;4.60;3.35;;;;;;;0.38;79.39;98968.91;4942528;28;20101;-54
2021/01/29 10:46:07;;;;;;;7.28;3.53;;;;;;;0.33;79.96;98967.88;4934416;28;20437;-52
2021/01/29 10:48:48;;;;;;;4.90;3.10;;;;;;;-0.24;81.23;98956.38;4934765;28;20075;-52
2021/01/29 10:51:45;;;;;;;5.63;3.40;;;;;;;0.40;78.92;98959.75;4938540;28;20051;-54
2021/01/29 10:54:13;;;;;;;6.05;3.22;;;;;;;0.28;80.44;98956.78;4934793;28;20106;-58
2021/01/29 10:57:00;;;;;;;4.60;3.15;;;;;;;0.43;77.71;98959.00;4935787;28;20048;-49
2021/01/29 10:59:36;;;;;;;5.28;2.78;;;;;;;0.57;76.25;98945.28;4939699;28;20066;-52
2021/01/29 11:02:07;;;;;;;5.45;3.22;;;;;;;0.12;78.47;98949.41;4937286;28;20043;-58
2021/01/29 11:04:45;;;;;;;5.38;3.00;;;;;;;0.21;78.62;98944.75;4933402;28;20503;-58
2021/01/29 11:07:27;;;;;;;5.50;3.40;;;;;;;0.69;76.90;98945.72;4936135;28;20055;-54
2021/01/29 11:10:04;;;;;;;6.65;3.08;;;;;;;0.84;76.20;98954.66;4941113;28;20106;-58
2021/01/29 11:12:50;;;;;;;5.43;3.20;;;;;;;0.48;76.47;98943.25;4945119;28;20048;-57
2021/01/29 11:15:24;;;;;;;5.50;2.22;;;;;;;1.07;72.96;98936.16;4934890;28;20050;-53
2021/01/29 11:18:06;;;;;;;4.22;1.77;;;;;;;0.69;74.43;98939.81;4945867;28;20490;-61
2021/01/29 11:20:36;;;;;;;3.13;2.60;;;;;;;0.87;73.48;98932.06;4937657;28;20043;-59
2021/01/29 11:23:17;;;;;;;5.38;2.38;;;;;;;0.77;75.31;98928.34;4942400;28;20055;-59
2021/01/29 11:25:46;;;;;;;3.55;2.17;;;;;;;1.06;73.23;98926.00;4938225;28;20078;-50
2021/01/29 11:28:46;;;;;;;5.22;1.98;;;;;;;1.07;72.07;98926.06;4936201;28;20054;-57
2021/01/29 11:31:27;;;;;;;4.97;2.00;;;;;;;1.19;69.39;98925.63;4931733;28;20150;-58
2021/01/29 11:33:58;;;;;;;3.70;2.08;;;;;;;2.06;67.43;98918.38;4934775;28;20133;-59
2021/01/29 11:36:49;;;;;;;3.55;1.98;;;;;;;0.99;70.55;98907.31;4935203;28;20051;-49
2021/01/29 11:39:45;;;;;;;2.72;2.10;;;;;;;1.00;71.99;98912.38;4938719;28;20043;-59
2021/01/29 11:42:30;;;;;;;2.20;2.00;;;;;;;0.69;72.06;98905.44;4933754;28;20039;-61
2021/01/29 11:45:05;;;;;;;3.00;1.98;;;;;;;1.27;69.20;98897.34;4938502;28;20409;-53
2021/01/29 11:47:34;;;;;;;5.15;3.03;;;;;;;1.89;67.00;98891.75;4935927;28;20133;-49
2021/01/29 11:50:08;;;;;;;6.95;2.30;;;;;;;1.75;68.00;98879.56;4939659;28;20087;-59
2021/01/29 11:53:16;;;;;;;4.47;2.33;;;;;;;1.92;67.43;98871.66;4935715;28;20047;-57
2021/01/29 11:56:01;;;;;;;3.60;1.95;;;;;;;1.55;67.39;98867.13;4940562;28;20098;-46
2021/01/29 11:58:37;;;;;;;2.50;1.77;;;;;;;1.23;65.06;98860.25;4949026;28;20057;-57
2021/01/29 12:01:12;;;;;;;2.80;1.95;;;;;;;0.68;68.68;98857.50;4946740;28;20281;-56
2021/01/29 12:04:00;;;;;;;;;;;;;;;0.95;69.84;98850.03;4951770;28;20078;-56
2021/01/29 12:06:35;;;;;;;4.03;2.47;;;;;;;1.04;69.67;98842.81;4948861;28;20575;-54
2021/01/29 12:09:09;;;;;;;4.32;2.33;;;;;;;1.23;67.64;98840.06;4948204;28;20780;-56
2021/01/29 12:11:59;;;;;;;5.82;2.53;;;;;;;1.59;67.87;98843.72;4949134;28;20121;-56
2021/01/29 12:14:47;;;;;;;4.55;2.40;;;;;;;1.69;66.63;98831.44;4953099;28;20140;-56
2021/01/29 12:17:22;;;;;;;3.28;2.30;;;;;;;1.94;65.58;98834.69;4946717;28;20447;-54
2021/01/29 12:19:50;;;;;;;4.78;2.55;;;;;;;1.46;65.60;98834.91;4948007;28;20452;-55
2021/01/29 12:22:35;;;;;;;4.65;2.40;;;;;;;1.54;66.69;98836.03;4948846;28;20078;-56
2021/01/29 12:25:20;;;;;;;3.75;2.45;;;;;;;1.53;67.30;98819.19;4948095;28;20046;-59
2021/01/29 12:27:52;;;;;;;5.82;2.80;;;;;;;1.15;68.47;98813.75;4945369;28;20091;-49
2021/01/29 12:30:22;;;;;;;8.38;3.47;;;;;;;1.58;67.47;98811.75;4935542;28;20103;-56
2021/01/29 12:33:03;;;;;;;4.72;2.72;;;;;;;1.71;65.92;98807.13;4939015;28;20059;-50
2021/01/29 12:35:51;;;;;;;5.30;3.15;;;;;;;1.81;65.08;98807.41;4934923;28;20055;-54
2021/01/29 12:38:38;;;;;;;6.93;2.97;;;;;;;1.38;64.37;98808.59;4933599;28;20392;-54
2021/01/29 12:41:43;;;;;;;6.07;2.72;;;;;;;1.48;64.41;98791.31;4932705;28;20118;-51